KCBM/CBM METAR and TAF weather

Enter ICAO airport designator
Station Type Date Time Source
KCBM METAR 2020/03/29 19:56 UTC NOAA

KCBM 291956Z AUTO 29007KT 10SM CLR 26/05 A3012 RMK AO2 SLP201 T02550051 $


Station Type Date Time Source
KCBM Decoded METAR 2020/03/29 19:56 UTC NOAA

Columbus Air Force Base, MS, United States (KCBM) 33-39N 088-27W
Mar 29, 2020 - 03:56 PM EDT / 2020.03.29 1956 UTC
Wind: from the WNW (290 degrees) at 8 MPH (7 KT):0
Visibility: 10 mile(s):0
Sky conditions: clear
Temperature: 77.9 F (25.5 C)
Dew Point: 41.2 F (5.1 C)
Relative Humidity: 26%
Pressure (altimeter): 30.12 in. Hg (1019 hPa)
ob: KCBM 291956Z AUTO 29007KT 10SM CLR 26/05 A3012 RMK AO2 SLP201 T02550051
cycle: 20

Station Type Date Time Source
KCBM TAF 2020/03/28 21:39 UTC NOAA

TAF TAF
AMD KCBM 282140Z 2821/2923 19009KT 9999 SCT045 QNH2978INS
BECMG 2906/2907 19012KT 9000 -SHRA BKN015 QNH2981INS
TEMPO 2907/2909 VRB25G35KT 8000 -TSRA OVC015CB
BECMG 2909/2910 28009KT 9000 SHRA BKN025 QNH2990INS
BECMG 2912/2913 VRB06KT 9999 NSW SCT060 QNH3001INS
BECMG 2917/2918 28010G15KT 9999 FEW300 QNH3007INS TX28/2822Z TN17/2911Z LAST NO
AMDS AFT 2822 NEXT 3011

Example: see airport list